Ana Sayfa
METAR-TAF:

METAR-TAF

Havaalanları :

Caro, Michigan, Amerika Birleşik Devletleri

Enlem: 43-27-31N, Boylam: 083-26-43W, yükseklik: 214 m

Güncel hava durumu gözlemi

Rapor saat 15:16 UTC de 27 dakika önce yapıldı.
Rüzgar batıdan 19 kt ve 22 kt'a kadar ani rüzgarlar
Sıcaklık -5°C
Nem 58%
Basınç 1009 hPa
Görüş mesafesi: 16.1 km
3700 ft yükseklikte parçalı bulutlu

METAR: KCFS 281516Z AUTO 26019G22KT 10SM SCT037 M05/M12 A2980 RMK AO2 T10501121

Saat: 10:43 (15:43 UTC)


TAF: eksik

4.000'den fazla havaalanı için hava durumu gözlemleri ve tahminleri (METAR ve TAF raporları).

Kullanılabilir istasyonlar harita üzerinde sarı ve kırmızı noktalarla gösterilir.

İstasyonun adını görmek için fareyi noktanın üzerinde gezdirin.

Sonrasında hava gözlem ve tahminlerini görmek için tıklayın.

Haritayı değiştirmek için: yaklaştırmak için siyah artı işaretli yeşil düğmeye ve uzaklaştırmak için de eksi işaretli düğmeye hızla tıklayın; bitişik haritalar için yeşil okları kullanın.


METAR-TAF: